WetterOnline ( http://www.wetteronline.de )

Wetter aktuell Rheinstetten

Aktuelles Wetter: Rheinstetten (116m)

6-stündlich | Neueste Meldungen
Ortszeit Temperatur Wetter
Do, 20.09. 20:00 23.5° C wolkenlos
Do, 20.09. 14:00 27.8° C leicht bewölkt
Do, 20.09. 8:00 16.7° C wolkig
Do, 20.09. 2:00 16.3° C leicht bewölkt
Mi, 19.09. 20:00 24.8° C wolkenlos
Mi, 19.09. 14:00 27.6° C wolkig
Mi, 19.09. 8:00 15.3° C wolkenlos
Mi, 19.09. 2:00 18.1° C leicht bewölkt
Ortszeit Temperatur Wetter
Do, 20.09. 22:00 18.2° C leicht bewölkt
Do, 20.09. 21:50 18.2° C leicht bewölkt
Do, 20.09. 21:40 18.6° C leicht bewölkt
Do, 20.09. 21:30 19.3° C leicht bewölkt
Do, 20.09. 21:20 19.3° C leicht bewölkt
Do, 20.09. 21:10 19.5° C fast wolkenlos
Do, 20.09. 21:00 19.7° C fast wolkenlos
Do, 20.09. 20:30 20.8° C wolkenlos
Do, 20.09. 20:00 23.5° C wolkenlos
Do, 20.09. 19:30 26.0° C leicht bewölkt
Do, 20.09. 19:00 27.9° C leicht bewölkt
Ortszeit Relative Feuchte Sichtweite
Do, 20.09. 20:00 56% 29 km
Do, 20.09. 14:00 38% 20 km
Do, 20.09. 8:00 83% 17 km
Do, 20.09. 2:00 82% 24 km
Mi, 19.09. 20:00 48% 30 km
Mi, 19.09. 14:00 40% 40 km
Mi, 19.09. 8:00 84% 23 km
Mi, 19.09. 2:00 73% 30 km
Ortszeit Relative Feuchte Sichtweite
Do, 20.09. 22:00 74% 23 km
Do, 20.09. 21:50 74% -
Do, 20.09. 21:40 71% -
Do, 20.09. 21:30 69% 29 km
Do, 20.09. 21:20 69% -
Do, 20.09. 21:10 67% -
Do, 20.09. 21:00 66% 26 km
Do, 20.09. 20:30 63% 21 km
Do, 20.09. 20:00 56% 29 km
Do, 20.09. 19:30 46% 30 km
Do, 20.09. 19:00 40% 40 km
Ortszeit Niederschlagsmenge Niederschlagsart
Do, 20.09. 20:00 0.0 l/m2 in 12 Std. -
Do, 20.09. 14:00 0.0 l/m2 in 6 Std. -
Do, 20.09. 8:00 0.0 l/m2 in 12 Std. -
Do, 20.09. 2:00 0.0 l/m2 in 6 Std. -
Mi, 19.09. 20:00 0.0 l/m2 in 12 Std. -
Mi, 19.09. 14:00 0.0 l/m2 in 6 Std. -
Mi, 19.09. 8:00 0.0 l/m2 in 12 Std. -
Mi, 19.09. 2:00 0.0 l/m2 in 6 Std. -
Ortszeit Niederschlagsmenge Niederschlagsart
Do, 20.09. 22:00 0.0 l/m2 in 1 Std. -
Do, 20.09. 21:50 keine Meldung -
Do, 20.09. 21:40 keine Meldung -
Do, 20.09. 21:30 0.0 l/m2 in 1 Std. -
Do, 20.09. 21:20 keine Meldung -
Do, 20.09. 21:10 keine Meldung -
Do, 20.09. 21:00 0.0 l/m2 in 1 Std. -
Do, 20.09. 20:30 0.0 l/m2 in 1 Std. -
Do, 20.09. 20:00 0.0 l/m2 in 1 Std. -
Do, 20.09. 19:30 0.0 l/m2 in 1 Std. -
Do, 20.09. 19:00 0.0 l/m2 in 1 Std. -
Ortszeit Stärke Spitze Richtung
km/h Bft. km/h Grad Sektor
Do, 20.09. 20:00 4 1 40 220° SW
Do, 20.09. 14:00 19 3 28 260° W
Do, 20.09. 8:00 6 1 11 200° S
Do, 20.09. 2:00 0 0 11 - -
Mi, 19.09. 20:00 4 1 25 260° W
Mi, 19.09. 14:00 7 2 22 290° W
Mi, 19.09. 8:00 7 2 14 250° W
Mi, 19.09. 2:00 11 2 22 240° SW
Ortszeit Stärke Spitze Richtung
km/h Bft. km/h Grad Sektor
Do, 20.09. 22:00 4 1 7 210° SW
Do, 20.09. 21:50 4 1 - 210° SW
Do, 20.09. 21:40 4 1 - 190° S
Do, 20.09. 21:30 4 1 7 140° SO
Do, 20.09. 21:20 4 1 - 140° SO
Do, 20.09. 21:10 6 1 - 140° SO
Do, 20.09. 21:00 7 2 11 140° SO
Do, 20.09. 20:30 6 1 7 260° W
Do, 20.09. 20:00 4 1 7 220° SW
Do, 20.09. 19:30 6 1 7 240° SW
Do, 20.09. 19:00 6 1 15 250° W
Ortszeit Untergrenze Bedeckung Gattung
total tief tief mittel hoch
Do, 20.09. 20:00 - 0/8 0/8 - - -
Do, 20.09. 14:00 9000 m 5/8 0/8 - - -
Do, 20.09. 8:00 8400 m 8/8 0/8 - - -
Do, 20.09. 2:00 2400 m 2/8 1/8 - - -
Mi, 19.09. 20:00 - 0/8 0/8 - - -
Mi, 19.09. 14:00 2400 m 7/8 7/8 - - -
Mi, 19.09. 8:00 - 0/8 0/8 - - -
Mi, 19.09. 2:00 8700 m 6/8 0/8 - - -
Ortszeit Bedeckungsgrad in Achtel und Wolkenuntergrenze
Do, 20.09. 22:00 3(10500m)
Do, 20.09. 21:50 3(10500m)
Do, 20.09. 21:40 4(10500m)
Do, 20.09. 21:30 4(10500m)
Do, 20.09. 21:20 4(10500m)
Do, 20.09. 21:10 2(10500m)
Do, 20.09. 21:00 1(10500m)
Do, 20.09. 20:30 1(10500m)
Do, 20.09. 20:00 keine Wolken
Do, 20.09. 19:30 3(10500m)
Do, 20.09. 19:00 7(10500m)
Ortszeit Luftdruck NN (hPa) Tendenz (hPa in 3 Std.)
Do, 20.09. 20:00 1015 - 1,3
Do, 20.09. 14:00 1018 - 1,8
Do, 20.09. 8:00 1020 + 0,6
Do, 20.09. 2:00 1020 + 0,5
Mi, 19.09. 20:00 1018 0,0
Mi, 19.09. 14:00 1020 - 0,8
Mi, 19.09. 8:00 1020 + 1,0
Mi, 19.09. 2:00 1018 + 0,9
Ortszeit Luftdruck NN (hPa) Tendenz (hPa in 3 Std.)
Do, 20.09. 22:00 1015 - 0,5
Do, 20.09. 21:50 1015 keine Meldung
Do, 20.09. 21:40 1015 keine Meldung
Do, 20.09. 21:30 1015 - 0,6
Do, 20.09. 21:20 1015 keine Meldung
Do, 20.09. 21:10 1015 keine Meldung
Do, 20.09. 21:00 1015 - 0,7
Do, 20.09. 20:30 1015 - 1,0
Do, 20.09. 20:00 1015 - 1,3
Do, 20.09. 19:30 1015 - 1,5
Do, 20.09. 19:00 1015 - 1,6
Ortszeit Schneehöhe (cm)
Do, 20.09. 20:00 -
Do, 20.09. 14:00 -
Do, 20.09. 8:00 -
Do, 20.09. 2:00 -
Mi, 19.09. 20:00 -
Mi, 19.09. 14:00 -
Mi, 19.09. 8:00 -
Mi, 19.09. 2:00 -
Ortszeit Schneehöhe (cm)
Do, 20.09. 22:00 -
Do, 20.09. 21:50 -
Do, 20.09. 21:40 -
Do, 20.09. 21:30 -
Do, 20.09. 21:20 -
Do, 20.09. 21:10 -
Do, 20.09. 21:00 -
Do, 20.09. 20:30 -
Do, 20.09. 20:00 -
Do, 20.09. 19:30 -
Do, 20.09. 19:00 -
Link zu dieser Seite / Seite empfehlen

Das Wetter in ...